Terminal Aerodrome Forecast
Issued by NWS Buffalo, NY

Home | Current Version | Previous Version | Text Only | Print | Product List | Glossary On
Versions: 1 2 3 4 5 6 7 8 9 10 11 12 13 14 15 16 17 18 19 20 21 22 23 24 25 26 27 28
000
FTUS41 KBUF 271500 AAA
TAFART
TAF AMD
KART 271508Z 2715/2812 25006KT P6SM SKC
     FM271900 25011KT P6SM BKN150
     FM280100 22007KT P6SM SCT040
     FM280900 33004KT P6SM SCT040
     FM281100 35006KT P6SM BKN040=

USA.gov is the U.S. government's official web portal to all federal, state and local government web resources and services.